Time;durP1;ratioP1;P1;durP2;ratioP2;P2;SDS_P1;SDS_P2;PMS_P1;PMS_P2;Temp;Humidity;BMP_temperature;BMP_pressure;BME280_temperature;BME280_humidity;BME280_pressure;Samples;Min_cycle;Max_cycle;Signal;HPM_P1;HPM_P2
2022/02/10 00:16:37;;;;;;;40.28;21.63;;;;;;;8.21;100.00;102177.44;5097560;28;20038;-72
2022/02/10 00:19:38;;;;;;;42.90;21.50;;;;;;;8.16;100.00;102184.19;5093756;28;20042;-72
2022/02/10 00:22:13;;;;;;;42.92;21.92;;;;;;;8.17;100.00;102175.50;5101258;28;20046;-72
2022/02/10 00:35:37;;;;;;;46.78;22.15;;;;;;;8.06;100.00;102154.91;5095443;28;20440;-72
2022/02/10 00:38:03;;;;;;;41.60;20.42;;;;;;;8.14;100.00;102150.03;5077893;28;20119;-72
2022/02/10 00:40:31;;;;;;;45.35;22.13;;;;;;;8.15;100.00;102140.44;5078063;28;20105;-72
2022/02/10 00:42:59;;;;;;;38.22;21.98;;;;;;;8.11;100.00;102139.38;5077840;28;20043;-73
2022/02/10 00:45:41;;;;;;;47.85;21.55;;;;;;;8.10;100.00;102133.25;5102575;28;20024;-73
2022/02/10 00:48:09;;;;;;;46.47;21.27;;;;;;;8.05;100.00;102136.47;5088687;28;20024;-71
2022/02/10 00:50:37;;;;;;;41.75;22.48;;;;;;;7.99;100.00;102133.56;5095981;28;20509;-73
2022/02/10 00:53:18;;;;;;;46.30;23.85;;;;;;;8.02;100.00;102136.34;5080571;28;20048;-73
2022/02/10 00:55:46;;;;;;;39.95;20.92;;;;;;;7.93;100.00;102134.16;5079209;28;20035;-72
2022/02/10 00:58:20;;;;;;;48.15;24.17;;;;;;;7.93;100.00;102127.22;5069277;28;20451;-73
2022/02/10 01:12:25;;;;;;;43.45;23.08;;;;;;;7.83;100.00;102116.22;5069757;28;20081;-73
2022/02/10 01:30:58;;;;;;;54.65;25.90;;;;;;;7.75;100.00;102098.38;5092163;28;20450;-73
2022/02/10 01:33:24;;;;;;;58.88;26.58;;;;;;;7.72;100.00;102092.13;5089401;28;20032;-74
2022/02/10 01:35:49;;;;;;;51.92;26.63;;;;;;;7.72;100.00;102086.88;5082961;28;20467;-72
2022/02/10 01:38:14;;;;;;;55.85;27.45;;;;;;;7.67;100.00;102080.50;5063897;28;20111;-72
2022/02/10 01:41:27;;;;;;;56.53;28.33;;;;;;;7.70;100.00;102084.16;5082879;28;20061;-72
2022/02/10 02:05:39;;;;;;;57.25;26.52;;;;;;;7.56;100.00;102053.78;5081935;28;20062;-72
2022/02/10 02:08:07;;;;;;;48.72;24.48;;;;;;;7.51;100.00;102045.69;5083058;28;20052;-72
2022/02/10 02:10:33;;;;;;;52.35;24.70;;;;;;;7.52;100.00;102044.00;5074158;28;20024;-72
2022/02/10 02:13:00;;;;;;;60.17;26.05;;;;;;;7.48;100.00;102034.19;5077240;28;20056;-72
2022/02/10 02:15:25;;;;;;;56.70;24.42;;;;;;;7.45;100.00;102034.03;5073954;28;20032;-72
2022/02/10 02:17:51;;;;;;;58.25;24.85;;;;;;;7.43;100.00;102032.25;5073956;28;20076;-73
2022/02/10 02:20:16;;;;;;;56.83;25.25;;;;;;;7.45;100.00;102034.03;5085396;28;20496;-72
2022/02/10 02:22:41;;;;;;;61.80;26.60;;;;;;;7.45;100.00;102028.78;5075101;28;20523;-73
2022/02/10 02:25:07;;;;;;;65.93;26.35;;;;;;;7.43;100.00;102036.56;5089588;28;20034;-73
2022/02/10 02:27:46;;;;;;;65.28;25.80;;;;;;;7.42;100.00;102032.19;5057266;28;20027;-73
2022/02/10 02:30:38;;;;;;;74.28;27.88;;;;;;;7.41;100.00;102033.88;5063975;28;20453;-72
2022/02/10 03:06:18;;;;;;;68.88;27.13;;;;;;;7.31;100.00;101984.53;5077701;28;20102;-72
2022/02/10 03:08:38;;;;;;;69.28;26.15;;;;;;;7.31;100.00;101983.63;5078048;28;20063;-72
2022/02/10 03:11:09;;;;;;;86.97;27.75;;;;;;;7.28;100.00;101983.47;5080873;28;20433;-71
2022/02/10 03:13:39;;;;;;;78.35;28.38;;;;;;;7.30;100.00;101982.72;5067768;28;20127;-72
2022/02/10 03:16:33;;;;;;;85.78;27.70;;;;;;;7.29;100.00;101970.44;5058896;28;20023;-72
2022/02/10 03:19:03;;;;;;;94.13;30.15;;;;;;;7.26;100.00;101960.72;5080490;28;20063;-72
2022/02/10 04:05:52;;;;;;;95.50;31.63;;;;;;;7.33;100.00;101977.63;5099955;28;20043;-72
2022/02/10 04:15:47;;;;;;;;;;;;;;;7.32;100.00;101983.69;5065482;28;20500;-72
2022/02/10 04:21:13;;;;;;;99.05;32.67;;;;;;;7.34;100.00;101979.44;5095453;28;20066;-72
2022/02/10 04:24:02;;;;;;;78.82;27.95;;;;;;;7.35;100.00;101996.94;5097799;28;20110;-73
2022/02/10 04:26:45;;;;;;;59.35;21.67;;;;;;;7.32;100.00;101991.53;5086000;28;20035;-72
2022/02/10 04:32:17;;;;;;;34.65;13.02;;;;;;;7.20;100.00;101981.38;5096857;28;20035;-72
2022/02/10 04:54:08;;;;;;;;;;;;;;;6.90;100.00;101972.91;5100837;28;20074;-72
2022/02/10 05:20:16;;;;;;;27.23;10.05;;;;;;;6.78;100.00;101980.16;5103719;28;20134;-72
2022/02/10 05:31:25;;;;;;;19.90;9.05;;;;;;;6.77;100.00;101988.81;5094388;28;20487;-72
2022/02/10 05:35:38;;;;;;;16.10;8.55;;;;;;;6.74;100.00;101981.69;5097406;28;20040;-72
2022/02/10 05:56:31;;;;;;;20.80;8.77;;;;;;;6.68;100.00;101991.88;5086099;28;20515;-73
2022/02/10 06:51:04;;;;;;;15.25;4.22;;;;;;;6.21;100.00;102033.00;5083603;28;20473;-71
2022/02/10 07:02:45;;;;;;;15.10;4.45;;;;;;;6.14;100.00;102036.09;5100806;28;20415;-72
2022/02/10 07:56:31;;;;;;;24.42;5.35;;;;;;;6.03;100.00;102073.00;5096618;28;20427;-74
2022/02/10 07:59:34;;;;;;;10.93;5.55;;;;;;;6.03;100.00;102086.06;5110757;27;20039;-74
2022/02/10 08:49:44;;;;;;;11.55;5.07;;;;;;;6.47;100.00;102111.94;5102243;27;20039;-73
2022/02/10 08:56:00;;;;;;;10.43;4.63;;;;;;;6.73;100.00;102123.81;5111019;27;20110;-75
2022/02/10 09:01:31;;;;;;;11.48;4.70;;;;;;;6.72;100.00;102120.25;5107599;27;20074;-74
2022/02/10 09:04:09;;;;;;;16.88;4.72;;;;;;;6.81;100.00;102126.78;5116790;27;20038;-74
2022/02/10 09:06:55;;;;;;;12.68;3.85;;;;;;;6.83;100.00;102125.19;5103056;27;20119;-74
2022/02/10 09:09:51;;;;;;;10.15;3.70;;;;;;;6.89;100.00;102130.72;5099984;27;20045;-73
2022/02/10 09:12:41;;;;;;;9.48;3.25;;;;;;;7.02;100.00;102135.78;5107591;27;20479;-74
2022/02/10 09:15:31;;;;;;;6.57;3.47;;;;;;;7.11;100.00;102132.75;5108579;27;20069;-75
2022/02/10 09:27:04;;;;;;;5.25;2.35;;;;;;;7.49;100.00;102136.41;5103929;27;20078;-73
2022/02/10 09:55:55;;;;;;;7.80;2.90;;;;;;;7.84;100.00;102152.06;5118358;27;20068;-73
2022/02/10 10:00:54;;;;;;;6.72;2.33;;;;;;;7.75;100.00;102153.41;5096225;27;20043;-74
2022/02/10 10:03:31;;;;;;;7.88;3.13;;;;;;;7.69;100.00;102157.44;5113319;27;20072;-73
2022/02/10 10:06:15;;;;;;;8.82;2.80;;;;;;;7.64;100.00;102157.22;5108094;27;20064;-74
2022/02/10 10:11:49;;;;;;;10.48;3.38;;;;;;;7.63;100.00;102165.91;5122093;27;20045;-74
2022/02/10 10:14:53;;;;;;;8.15;2.85;;;;;;;7.63;100.00;102165.91;5106649;27;20480;-73
2022/02/10 10:20:04;;;;;;;7.10;2.85;;;;;;;7.75;100.00;102169.13;5120689;27;20034;-74
2022/02/10 10:51:07;;;;;;;11.38;2.42;;;;;;;8.34;99.32;102174.59;5108940;28;20109;-75
2022/02/10 10:56:11;;;;;;;6.25;2.15;;;;;;;8.50;99.24;102175.31;5102758;28;20028;-73
2022/02/10 10:58:44;;;;;;;10.55;2.05;;;;;;;8.55;96.71;102173.81;5089637;28;20070;-74
2022/02/10 11:04:39;;;;;;;10.70;1.42;;;;;;;8.60;88.20;102160.09;5107970;27;19915;-76
2022/02/10 11:38:19;;;;;;;9.77;1.70;;;;;;;9.00;86.88;102174.09;5108881;27;20065;-74
2022/02/10 11:41:05;;;;;;;10.10;2.08;;;;;;;8.80;89.11;102169.69;5102700;27;20679;-75
2022/02/10 11:43:38;;;;;;;12.13;2.17;;;;;;;8.68;90.46;102178.81;5091128;27;20023;-74
2022/02/10 13:26:24;;;;;;;12.13;2.75;;;;;;;7.73;86.76;102165.56;5097279;28;20085;-75
2022/02/10 14:18:20;;;;;;;8.27;1.35;;;;;;;8.15;79.25;102149.19;5080158;28;20043;-75
2022/02/10 14:25:44;;;;;;;6.43;1.45;;;;;;;7.89;79.74;102161.06;5090391;28;20059;-75
2022/02/10 14:28:10;;;;;;;12.15;1.52;;;;;;;8.08;80.46;102168.09;5067428;28;20380;-75
2022/02/10 14:30:35;;;;;;;7.57;1.35;;;;;;;8.10;80.17;102153.34;5076160;28;20030;-75
2022/02/10 14:33:00;;;;;;;9.48;1.30;;;;;;;8.07;79.80;102158.41;5077743;28;20024;-75
2022/02/10 14:35:34;;;;;;;15.43;1.70;;;;;;;7.97;79.73;102162.31;5067776;28;20039;-74
2022/02/10 14:38:18;;;;;;;6.80;1.35;;;;;;;7.83;78.31;102163.38;5101893;28;20035;-74
2022/02/10 15:48:52;;;;;;;8.23;1.42;;;;;;;6.82;85.09;102181.81;5102312;27;20168;-75
2022/02/10 15:51:13;;;;;;;8.88;1.70;;;;;;;6.78;85.80;102178.97;5099839;27;20040;-76
2022/02/10 16:18:13;;;;;;;7.82;1.85;;;;;;;6.52;83.80;102157.53;5088903;28;20138;-75
2022/02/10 16:20:39;;;;;;;8.55;1.35;;;;;;;6.49;84.03;102163.50;5084864;28;20403;-75
2022/02/10 16:23:07;;;;;;;7.80;1.25;;;;;;;6.52;84.78;102166.25;5094986;28;20023;-76
2022/02/10 16:25:37;;;;;;;5.28;1.15;;;;;;;6.51;84.74;102174.03;5086090;28;20019;-76
2022/02/10 16:30:49;;;;;;;8.70;1.90;;;;;;;6.40;83.88;102162.97;5093078;28;20384;-76
2022/02/10 16:33:14;;;;;;;7.68;1.80;;;;;;;6.40;83.24;102166.53;5066930;28;20027;-76
2022/02/10 16:35:42;;;;;;;6.13;1.27;;;;;;;6.41;84.15;102167.41;5079142;28;20035;-75
2022/02/10 16:38:08;;;;;;;5.40;1.30;;;;;;;6.38;84.50;102162.91;5081884;28;20062;-75
2022/02/10 16:40:34;;;;;;;7.13;1.60;;;;;;;6.39;85.01;102158.59;5092742;28;20036;-75
2022/02/10 16:43:00;;;;;;;13.40;2.05;;;;;;;6.36;85.26;102167.16;5080390;28;20029;-75
2022/02/10 16:45:26;;;;;;;7.32;1.45;;;;;;;6.33;84.99;102164.34;5067934;28;20221;-76
2022/02/10 16:47:52;;;;;;;9.50;1.50;;;;;;;6.30;85.38;102166.81;5092933;28;20112;-76
2022/02/10 16:50:19;;;;;;;11.63;1.67;;;;;;;6.25;85.99;102168.25;5080445;28;20103;-76
2022/02/10 16:52:49;;;;;;;9.15;2.08;;;;;;;6.23;86.42;102167.31;5080728;28;20024;-75
2022/02/10 16:57:50;;;;;;;9.52;1.90;;;;;;;6.23;85.34;102172.53;5105860;27;20023;-73
2022/02/10 17:19:05;;;;;;;12.45;1.40;;;;;;;6.07;84.47;102182.09;5101716;27;20482;-75
2022/02/10 17:53:01;;;;;;;6.30;1.40;;;;;;;5.89;85.98;102201.94;5097321;28;20173;-72
2022/02/10 17:55:27;;;;;;;8.85;1.73;;;;;;;5.90;86.29;102211.56;5085192;28;20034;-72
2022/02/10 17:57:52;;;;;;;4.85;1.20;;;;;;;5.87;85.54;102206.16;5104435;28;20054;-71
2022/02/10 18:00:20;;;;;;;9.23;1.63;;;;;;;5.85;85.44;102211.31;5093782;28;20062;-72
2022/02/10 18:02:46;;;;;;;8.05;1.60;;;;;;;5.86;86.22;102217.41;5082614;28;20027;-72
2022/02/10 18:05:30;;;;;;;9.40;1.58;;;;;;;5.82;86.10;102210.22;5083106;28;20505;-73
2022/02/10 18:07:58;;;;;;;;;;;;;;;5.80;86.23;102217.97;5098723;28;20024;-71
2022/02/10 18:11:13;;;;;;;6.40;1.58;;;;;;;5.82;85.77;102211.13;5098068;28;19915;-71
2022/02/10 18:15:51;;;;;;;12.05;2.00;;;;;;;5.85;86.17;102211.31;5100624;28;19945;-72
2022/02/10 18:18:27;;;;;;;5.68;1.35;;;;;;;5.86;86.05;102204.34;5099488;28;20024;-73
2022/02/10 18:21:04;;;;;;;9.43;1.92;;;;;;;5.90;86.92;102203.72;5105566;28;20028;-72
2022/02/10 18:23:47;;;;;;;7.68;1.73;;;;;;;5.89;86.84;102201.94;5094843;28;20515;-73
2022/02/10 18:26:15;;;;;;;6.05;1.73;;;;;;;5.92;87.00;102212.56;5094200;28;20030;-72
2022/02/10 18:28:56;;;;;;;10.63;2.20;;;;;;;5.96;87.67;102222.38;5085021;28;20025;-73
2022/02/10 19:01:48;;;;;;;10.18;2.05;;;;;;;6.05;91.39;102219.41;5098318;28;20090;-72
2022/02/10 19:09:39;;;;;;;14.50;2.30;;;;;;;5.99;91.82;102234.75;5106722;28;20028;-71
2022/02/10 19:12:14;;;;;;;11.05;1.63;;;;;;;5.93;91.77;102235.28;5078180;28;20476;-72
2022/02/10 19:14:40;;;;;;;11.25;2.92;;;;;;;5.92;91.92;102233.47;5086295;28;20097;-72
2022/02/10 19:17:05;;;;;;;22.17;4.57;;;;;;;5.96;91.55;102224.97;5093643;28;20028;-70
2022/02/10 19:19:31;;;;;;;12.63;2.42;;;;;;;5.97;91.86;102221.56;5096210;28;20055;-71
2022/02/10 19:21:56;;;;;;;5.13;1.50;;;;;;;5.93;91.74;102227.44;5110724;28;20041;-72
2022/02/10 19:24:21;;;;;;;7.95;2.10;;;;;;;5.89;91.96;102223.72;5101012;28;20047;-72
2022/02/10 19:26:50;;;;;;;12.23;2.15;;;;;;;5.88;92.05;102227.16;5105274;28;20024;-72
2022/02/10 19:29:20;;;;;;;7.28;1.83;;;;;;;5.85;91.68;102231.31;5082747;28;20027;-72
2022/02/10 19:31:47;;;;;;;5.57;1.63;;;;;;;5.85;91.42;102226.97;5096686;28;20379;-73
2022/02/10 19:34:12;;;;;;;7.80;1.85;;;;;;;5.84;91.63;102237.34;5078953;28;20118;-73
2022/02/10 19:36:38;;;;;;;6.88;1.80;;;;;;;5.84;91.38;102227.78;5096783;28;20483;-73
2022/02/10 19:39:04;;;;;;;9.93;1.88;;;;;;;5.83;90.99;102233.84;5090291;28;20479;-73
2022/02/10 19:41:34;;;;;;;13.90;2.30;;;;;;;5.86;91.70;102225.25;5096415;28;20043;-73
2022/02/10 19:44:01;;;;;;;7.82;1.50;;;;;;;5.83;91.80;102231.22;5098118;28;20024;-72
2022/02/10 19:46:27;;;;;;;8.15;1.73;;;;;;;5.80;91.83;102232.75;5081799;28;20392;-75
2022/02/10 19:48:53;;;;;;;9.82;1.77;;;;;;;5.79;91.92;102230.94;5104113;28;20080;-73
2022/02/10 19:51:19;;;;;;;11.98;1.90;;;;;;;5.80;91.96;102231.03;5103993;27;20535;-73
2022/02/10 19:53:44;;;;;;;9.00;1.65;;;;;;;5.79;91.64;102230.94;5081809;28;20136;-74
2022/02/10 19:56:12;;;;;;;9.90;1.80;;;;;;;5.79;91.40;102228.31;5090930;28;20115;-73
2022/02/10 19:58:38;;;;;;;6.85;1.73;;;;;;;5.80;91.64;102227.53;5105340;28;20472;-73
2022/02/10 20:01:03;;;;;;;15.00;1.73;;;;;;;5.78;90.92;102239.56;5109761;28;20084;-72
2022/02/10 20:03:32;;;;;;;10.48;1.67;;;;;;;5.76;91.11;102236.00;5079629;28;20101;-73
2022/02/10 20:05:58;;;;;;;6.13;1.67;;;;;;;5.76;90.67;102231.66;5090889;28;20169;-73
2022/02/10 20:08:25;;;;;;;10.02;1.83;;;;;;;5.78;90.38;102234.34;5083377;28;20043;-73
2022/02/10 20:10:55;;;;;;;9.65;1.75;;;;;;;5.78;89.23;102221.28;5077701;28;20112;-73
2022/02/10 20:13:23;;;;;;;13.85;1.63;;;;;;;5.79;89.77;102225.72;5100542;28;20066;-73
2022/02/10 20:15:50;;;;;;;4.53;1.77;;;;;;;5.84;87.71;102235.63;5099881;28;20871;-73
2022/02/10 20:18:16;;;;;;;12.38;2.47;;;;;;;5.87;87.35;102225.38;5100727;28;20117;-73
2022/02/10 20:20:43;;;;;;;6.40;1.80;;;;;;;5.94;86.15;102231.84;5083709;28;20481;-72
2022/02/10 20:23:10;;;;;;;8.55;1.60;;;;;;;5.92;86.37;102233.47;5104264;28;20057;-74
2022/02/10 20:25:36;;;;;;;8.70;1.77;;;;;;;5.93;87.03;102235.28;5079785;28;20039;-72
2022/02/10 20:28:02;;;;;;;8.77;2.28;;;;;;;5.88;87.16;102231.47;5107650;28;20103;-73
2022/02/10 20:30:28;;;;;;;10.18;2.28;;;;;;;5.87;87.08;102234.91;5109128;28;20455;-72
2022/02/10 20:32:53;;;;;;;9.98;1.90;;;;;;;5.87;86.45;102234.91;5109569;28;20035;-73
2022/02/10 20:35:19;;;;;;;9.13;1.80;;;;;;;5.86;86.15;102234.00;5098625;28;20036;-73
2022/02/10 20:37:45;;;;;;;9.45;1.85;;;;;;;5.88;86.00;102237.59;5102217;27;20011;-72
2022/02/10 20:40:11;;;;;;;13.10;1.92;;;;;;;5.86;86.27;102235.69;5086270;27;20538;-72
2022/02/10 20:42:37;;;;;;;6.00;1.40;;;;;;;5.83;86.69;102233.84;5092878;28;20123;-71
2022/02/10 20:45:05;;;;;;;6.63;1.70;;;;;;;5.79;86.63;102230.94;5104701;27;21201;-72
2022/02/10 20:47:30;;;;;;;11.82;1.67;;;;;;;5.78;85.96;102239.56;5096317;27;20115;-73
2022/02/10 20:49:56;;;;;;;8.25;1.98;;;;;;;5.76;86.31;102233.38;5076795;28;20132;-72
2022/02/10 20:52:21;;;;;;;12.73;2.03;;;;;;;5.72;86.28;102228.00;5089197;28;20424;-72
2022/02/10 20:54:47;;;;;;;10.18;1.42;;;;;;;5.71;86.17;102236.63;5096897;28;20043;-73
2022/02/10 20:57:13;;;;;;;9.18;1.73;;;;;;;5.68;86.23;102230.31;5096691;28;20073;-72
2022/02/10 20:59:42;;;;;;;16.27;2.30;;;;;;;5.66;85.52;102225.00;5105892;27;20169;-72
2022/02/10 21:02:13;;;;;;;5.57;1.75;;;;;;;5.63;86.20;102230.06;5093213;27;20027;-73
2022/02/10 21:09:59;;;;;;;11.10;2.67;;;;;;;5.55;84.19;102224.38;5104457;28;20024;-73
2022/02/10 21:12:28;;;;;;;7.00;1.30;;;;;;;5.55;83.08;102223.47;5076700;28;20527;-73
2022/02/10 21:14:54;;;;;;;12.23;1.70;;;;;;;5.56;82.71;102215.72;5094097;28;20035;-73
2022/02/10 21:17:24;;;;;;;10.18;1.90;;;;;;;5.54;83.31;102219.94;5095053;28;20472;-73
2022/02/10 21:19:49;;;;;;;11.45;2.55;;;;;;;5.53;82.57;102212.03;5095464;28;20032;-73
2022/02/10 21:22:19;;;;;;;13.35;2.75;;;;;;;5.52;83.83;102210.22;5094973;28;20024;-73
2022/02/10 21:24:56;;;;;;;9.95;1.63;;;;;;;5.50;84.44;102211.84;5078267;28;20023;-73
2022/02/10 21:27:42;;;;;;;9.55;1.80;;;;;;;5.47;82.95;102211.69;5096401;28;20115;-72
2022/02/10 21:30:08;;;;;;;11.98;1.65;;;;;;;5.45;83.25;102213.28;5087730;28;20023;-73
2022/02/10 21:32:42;;;;;;;10.27;1.63;;;;;;;5.43;83.53;102214.91;5076546;28;20110;-73
2022/02/10 21:44:00;;;;;;;9.38;1.40;;;;;;;5.48;82.91;102206.56;5100026;28;20114;-73
2022/02/10 21:57:00;;;;;;;6.95;1.63;;;;;;;5.34;84.63;102210.03;5079680;28;20082;-73
2022/02/10 22:20:21;;;;;;;10.90;1.65;;;;;;;5.48;84.29;102230.03;5087816;28;20510;-72
2022/02/10 22:23:02;;;;;;;22.88;1.50;;;;;;;5.55;84.30;102228.69;5079472;28;20024;-71
2022/02/10 22:25:28;;;;;;;12.82;1.83;;;;;;;5.58;84.54;102227.16;5073377;28;20044;-72
2022/02/10 22:27:54;;;;;;;8.20;1.73;;;;;;;5.62;84.02;102220.41;5075184;28;20476;-71
2022/02/10 22:30:30;;;;;;;14.32;1.60;;;;;;;5.64;83.64;102226.59;5087413;28;20073;-75
2022/02/10 22:33:46;;;;;;;10.77;1.60;;;;;;;5.72;83.26;102216.63;5079458;28;20031;-72
2022/02/10 22:35:41;;;;;;;9.65;1.55;;;;;;;5.73;82.57;102224.53;5063720;28;20036;-72
2022/02/10 22:38:07;;;;;;;13.60;1.80;;;;;;;5.71;83.52;102226.19;5073570;28;20491;-72
2022/02/10 22:40:41;;;;;;;14.13;1.90;;;;;;;5.63;83.88;102219.59;5056271;28;20038;-73
2022/02/10 22:43:07;;;;;;;11.75;2.60;;;;;;;5.63;84.30;102218.69;5077042;28;20048;-72
2022/02/10 22:45:32;;;;;;;7.22;2.15;;;;;;;5.62;83.68;102222.13;5079642;28;20131;-72
2022/02/10 22:47:58;;;;;;;7.55;1.52;;;;;;;5.64;83.57;102221.38;5074630;28;20115;-71
2022/02/10 22:50:23;;;;;;;16.40;1.48;;;;;;;5.59;83.12;102215.00;5055111;28;20127;-72
2022/02/10 22:52:48;;;;;;;8.15;1.85;;;;;;;5.53;83.41;102217.25;5082529;28;20032;-73
2022/02/10 22:55:14;;;;;;;12.65;1.60;;;;;;;5.54;82.11;102224.28;5077080;28;20046;-72
2022/02/10 22:57:41;;;;;;;8.50;1.50;;;;;;;5.56;81.07;102225.25;5102647;28;20047;-72
2022/02/10 23:00:08;;;;;;;13.15;1.77;;;;;;;5.54;81.62;102216.44;5102952;28;20073;-72
2022/02/10 23:02:34;;;;;;;11.27;1.70;;;;;;;5.51;80.71;102224.09;5099873;28;20032;-73
2022/02/10 23:04:59;;;;;;;10.18;1.77;;;;;;;5.51;81.39;102229.34;5093290;27;20031;-72
2022/02/10 23:07:26;;;;;;;9.55;1.45;;;;;;;5.47;81.83;102232.56;5099859;28;20131;-72
2022/02/10 23:10:03;;;;;;;10.75;1.85;;;;;;;5.45;81.87;102223.72;5092997;28;20448;-72
2022/02/10 23:12:29;;;;;;;12.73;2.50;;;;;;;5.49;82.97;102236.16;5086970;28;20023;-72
2022/02/10 23:14:55;;;;;;;11.88;2.10;;;;;;;5.53;82.87;102238.13;5095395;28;20390;-73
2022/02/10 23:17:20;;;;;;;14.85;1.77;;;;;;;5.52;83.34;102236.31;5104263;28;20106;-72
2022/02/10 23:19:45;;;;;;;9.88;1.85;;;;;;;5.54;83.89;102240.84;5104371;28;20111;-72
2022/02/10 23:22:11;;;;;;;11.98;1.88;;;;;;;5.55;84.69;102239.16;5100274;28;20024;-72
2022/02/10 23:24:36;;;;;;;14.88;2.13;;;;;;;5.55;84.77;102237.41;5097648;28;20020;-73
2022/02/10 23:27:01;;;;;;;11.25;1.80;;;;;;;5.57;84.55;102242.72;5095608;28;20052;-72
2022/02/10 23:29:27;;;;;;;9.05;1.42;;;;;;;5.57;84.09;102240.13;5114109;27;20027;-72
2022/02/10 23:31:52;;;;;;;16.70;2.20;;;;;;;5.58;84.43;102237.59;5108522;27;20032;-72
2022/02/10 23:34:18;;;;;;;16.52;2.05;;;;;;;5.62;84.02;102235.19;5096697;28;20028;-72
2022/02/10 23:36:49;;;;;;;9.75;1.73;;;;;;;5.68;84.48;102238.16;5081848;28;20027;-73
2022/02/10 23:39:38;;;;;;;10.10;2.35;;;;;;;5.73;84.93;102240.22;5087246;28;20051;-73
2022/02/10 23:42:17;;;;;;;9.68;1.83;;;;;;;5.73;85.28;102241.94;5096535;28;20145;-72
2022/02/10 23:44:48;;;;;;;7.43;1.85;;;;;;;5.77;85.38;102245.63;5071597;28;20114;-72
2022/02/10 23:47:19;;;;;;;11.27;2.13;;;;;;;5.76;85.21;102246.44;5080454;28;20036;-72
2022/02/10 23:49:46;;;;;;;12.82;2.30;;;;;;;5.77;84.78;102245.63;5109921;28;20027;-72
2022/02/10 23:52:15;;;;;;;14.75;1.85;;;;;;;5.74;85.38;102256.81;5100604;28;20492;-72
2022/02/10 23:54:43;;;;;;;15.45;2.33;;;;;;;5.74;86.08;102260.31;5078919;28;20044;-72
